Time;durP1;ratioP1;P1;durP2;ratioP2;P2;SDS_P1;SDS_P2;PMS_P1;PMS_P2;Temp;Humidity;BMP_temperature;BMP_pressure;BME280_temperature;BME280_humidity;BME280_pressure;Samples;Min_cycle;Max_cycle;Signal;HPM_P1;HPM_P2
2021/03/09 00:00:49;;;;;;;90.17;48.80;;;;;;;;;;6348028;22;20041;-77
2021/03/09 00:03:15;;;;;;;92.00;46.13;;;;;;;;;;6351061;22;20416;-77
2021/03/09 00:05:41;;;;;;;83.97;48.40;;;;;;;;;;6351483;22;20040;-76
2021/03/09 00:08:07;;;;;;;89.90;50.70;;;;;;;;;;6352705;22;20007;-77
2021/03/09 00:10:33;;;;;;;78.27;47.27;;;;;;;;;;6377117;22;20045;-77
2021/03/09 00:12:59;;;;;;;89.30;47.27;;;;;;;;;;6349342;22;20017;-76
2021/03/09 00:15:25;;;;;;;80.47;44.27;;;;;;;;;;6376172;22;20002;-78
2021/03/09 00:17:51;;;;;;;93.90;49.70;;;;;;;;;;6377004;22;20002;-78
2021/03/09 00:20:17;;;;;;;89.23;53.10;;;;;;;;;;6350053;22;20007;-78
2021/03/09 00:22:43;;;;;;;90.87;50.33;;;;;;;;;;6350922;22;20029;-76
2021/03/09 00:25:10;;;;;;;94.97;59.97;;;;;;;;;;6376036;22;19999;-77
2021/03/09 00:27:35;;;;;;;90.67;53.20;;;;;;;;;;6349912;22;20450;-77
2021/03/09 00:30:02;;;;;;;96.53;55.20;;;;;;;;;;6378728;22;20019;-78
2021/03/09 00:32:28;;;;;;;92.53;50.17;;;;;;;;;;6378037;22;20021;-79
2021/03/09 00:34:54;;;;;;;103.70;50.97;;;;;;;;;;6352720;22;20017;-78
2021/03/09 00:37:20;;;;;;;95.93;59.17;;;;;;;;;;6353182;22;20034;-76
2021/03/09 00:39:46;;;;;;;84.63;47.93;;;;;;;;;;6379150;22;20018;-77
2021/03/09 00:42:12;;;;;;;95.53;47.47;;;;;;;;;;6353945;22;20006;-78
2021/03/09 00:44:38;;;;;;;96.23;52.13;;;;;;;;;;6355441;22;20026;-77
2021/03/09 00:47:04;;;;;;;98.27;54.00;;;;;;;;;;6381879;22;20017;-76
2021/03/09 00:49:30;;;;;;;104.73;54.53;;;;;;;;;;6381349;22;20002;-77
2021/03/09 00:51:56;;;;;;;104.13;60.17;;;;;;;;;;6376326;22;20003;-77
2021/03/09 00:54:22;;;;;;;99.97;57.93;;;;;;;;;;6350486;22;20017;-76
2021/03/09 00:56:48;;;;;;;109.17;55.43;;;;;;;;;;6373902;22;20101;-76
2021/03/09 00:59:14;;;;;;;110.73;65.80;;;;;;;;;;6347154;22;20014;-76
2021/03/09 01:01:40;;;;;;;109.80;50.20;;;;;;;;;;6347113;22;20006;-77
2021/03/09 01:04:06;;;;;;;110.80;52.07;;;;;;;;;;6346767;22;20015;-78
2021/03/09 01:06:32;;;;;;;108.13;51.73;;;;;;;;;;6371182;22;20010;-77
2021/03/09 01:08:58;;;;;;;106.90;52.80;;;;;;;;;;6371352;22;20011;-78
2021/03/09 01:11:24;;;;;;;102.23;54.43;;;;;;;;;;6345584;22;20501;-77
2021/03/09 01:13:50;;;;;;;110.67;53.80;;;;;;;;;;6347312;22;20088;-76
2021/03/09 01:16:16;;;;;;;101.53;53.10;;;;;;;;;;6372930;22;20011;-75
2021/03/09 01:18:42;;;;;;;106.47;55.33;;;;;;;;;;6346260;22;20010;-78
2021/03/09 01:21:08;;;;;;;105.43;54.33;;;;;;;;;;6371813;22;20329;-77
2021/03/09 01:23:34;;;;;;;104.03;54.43;;;;;;;;;;6346391;22;20010;-78
2021/03/09 01:26:00;;;;;;;112.37;55.27;;;;;;;;;;6346243;22;20007;-78
2021/03/09 01:28:26;;;;;;;98.23;46.23;;;;;;;;;;6346363;22;20454;-77
2021/03/09 01:30:52;;;;;;;105.50;49.33;;;;;;;;;;6346303;22;20014;-77
2021/03/09 01:33:18;;;;;;;119.17;60.03;;;;;;;;;;6346996;22;20014;-79
2021/03/09 01:35:44;;;;;;;109.47;50.90;;;;;;;;;;6372865;22;20002;-77
2021/03/09 01:38:10;;;;;;;97.30;48.87;;;;;;;;;;6375695;22;20003;-77
2021/03/09 01:40:36;;;;;;;118.37;55.17;;;;;;;;;;6375007;22;20446;-77
2021/03/09 01:43:04;;;;;;;103.77;49.00;;;;;;;;;;6347421;22;20002;-77
2021/03/09 01:45:30;;;;;;;118.43;57.20;;;;;;;;;;6373443;22;20030;-76
2021/03/09 01:47:59;;;;;;;121.23;55.23;;;;;;;;;;6346021;22;20340;-77
2021/03/09 01:50:25;;;;;;;126.17;55.33;;;;;;;;;;6371228;22;20049;-78
2021/03/09 01:52:51;;;;;;;129.40;51.23;;;;;;;;;;6345645;22;20081;-78
2021/03/09 01:55:17;;;;;;;109.70;49.97;;;;;;;;;;6371955;22;20033;-78
2021/03/09 01:57:43;;;;;;;111.33;48.57;;;;;;;;;;6346058;22;20313;-78
2021/03/09 02:00:10;;;;;;;101.03;45.83;;;;;;;;;;6372886;22;20005;-77
2021/03/09 02:02:36;;;;;;;109.63;50.63;;;;;;;;;;6346187;22;20045;-78
2021/03/09 02:05:05;;;;;;;98.10;43.80;;;;;;;;;;6346352;22;20007;-78
2021/03/09 02:07:31;;;;;;;87.50;40.57;;;;;;;;;;6372789;22;20447;-77
2021/03/09 02:09:57;;;;;;;81.17;37.70;;;;;;;;;;6347215;22;20010;-76
2021/03/09 02:12:27;;;;;;;76.37;34.40;;;;;;;;;;6374627;22;20028;-78
2021/03/09 02:15:00;;;;;;;58.70;26.53;;;;;;;;;;6372292;22;20028;-78
2021/03/09 02:17:29;;;;;;;60.40;24.23;;;;;;;;;;6372158;22;20014;-77
2021/03/09 02:19:58;;;;;;;39.13;17.30;;;;;;;;;;6373602;22;20077;-77
2021/03/09 02:22:43;;;;;;;38.50;16.07;;;;;;;;;;6374724;22;19998;-78
2021/03/09 02:25:28;;;;;;;35.28;17.58;;;;;;;;;;6372972;22;20003;-78
2021/03/09 02:28:40;;;;;;;49.13;21.35;;;;;;;;;;6374889;22;20001;-76
2021/03/09 02:31:07;;;;;;;40.07;19.27;;;;;;;;;;6310247;22;20015;-78
2021/03/09 02:33:35;;;;;;;45.60;22.37;;;;;;;;;;6281973;22;20015;-78
2021/03/09 02:36:05;;;;;;;42.63;20.60;;;;;;;;;;6307381;22;20011;-78
2021/03/09 02:38:34;;;;;;;49.60;23.67;;;;;;;;;;6281695;22;20333;-78
2021/03/09 02:41:00;;;;;;;44.27;21.83;;;;;;;;;;6308049;22;20007;-78
2021/03/09 02:43:27;;;;;;;64.43;31.67;;;;;;;;;;6282800;22;20015;-77
2021/03/09 02:45:54;;;;;;;65.33;32.03;;;;;;;;;;6282009;22;20130;-78
2021/03/09 02:48:21;;;;;;;81.57;34.47;;;;;;;;;;6282836;22;20006;-77
2021/03/09 02:50:49;;;;;;;80.53;40.50;;;;;;;;;;6283050;22;20034;-77
2021/03/09 02:53:15;;;;;;;86.90;39.90;;;;;;;;;;6307546;22;20011;-78
2021/03/09 02:55:43;;;;;;;100.67;40.33;;;;;;;;;;6282078;22;20015;-78
2021/03/09 02:58:10;;;;;;;103.20;44.53;;;;;;;;;;6282976;22;20007;-78
2021/03/09 03:00:40;;;;;;;101.80;44.30;;;;;;;;;;6282857;22;20030;-78
2021/03/09 03:03:07;;;;;;;101.80;46.43;;;;;;;;;;6346225;22;20003;-77
2021/03/09 03:05:34;;;;;;;95.83;41.63;;;;;;;;;;6371888;22;20012;-78
2021/03/09 03:08:02;;;;;;;92.77;41.40;;;;;;;;;;6372828;22;20484;-78
2021/03/09 03:10:28;;;;;;;86.47;37.87;;;;;;;;;;6372045;22;20011;-78
2021/03/09 03:12:54;;;;;;;96.00;39.90;;;;;;;;;;6345872;22;20465;-78
2021/03/09 03:15:21;;;;;;;76.17;36.87;;;;;;;;;;6372959;22;20469;-78
2021/03/09 03:17:47;;;;;;;67.63;30.80;;;;;;;;;;6347261;22;20010;-77
2021/03/09 03:20:15;;;;;;;70.40;30.30;;;;;;;;;;6373410;22;20018;-77
2021/03/09 03:22:42;;;;;;;56.90;27.10;;;;;;;;;;6375443;22;20006;-76
2021/03/09 03:25:09;;;;;;;62.83;30.83;;;;;;;;;;6348877;22;20089;-76
2021/03/09 03:27:37;;;;;;;53.27;29.20;;;;;;;;;;6373890;22;19998;-78
2021/03/09 03:30:05;;;;;;;57.00;31.70;;;;;;;;;;6374265;22;20002;-78
2021/03/09 03:32:31;;;;;;;72.70;32.97;;;;;;;;;;6372723;22;20017;-77
2021/03/09 03:34:57;;;;;;;57.27;29.60;;;;;;;;;;6346807;22;20026;-76
2021/03/09 03:37:23;;;;;;;82.10;35.53;;;;;;;;;;6374850;22;19995;-77
2021/03/09 03:39:50;;;;;;;72.63;38.43;;;;;;;;;;6347312;22;20010;-78
2021/03/09 03:42:17;;;;;;;79.77;39.90;;;;;;;;;;6348482;22;20082;-77
2021/03/09 03:44:43;;;;;;;82.93;42.50;;;;;;;;;;6373441;22;20007;-77
2021/03/09 03:47:09;;;;;;;85.90;41.53;;;;;;;;;;6347183;22;20040;-77
2021/03/09 03:49:35;;;;;;;101.07;44.33;;;;;;;;;;6349340;22;20022;-76
2021/03/09 03:52:10;;;;;;;85.30;43.93;;;;;;;;;;6376155;22;19998;-77
2021/03/09 03:54:36;;;;;;;85.30;40.13;;;;;;;;;;6375079;22;20003;-76
2021/03/09 03:57:02;;;;;;;95.83;44.07;;;;;;;;;;6374953;22;20018;-76
2021/03/09 03:59:32;;;;;;;97.87;42.13;;;;;;;;;;6374791;22;20006;-78
2021/03/09 04:02:01;;;;;;;109.90;45.07;;;;;;;;;;6372612;22;20068;-77
2021/03/09 04:04:28;;;;;;;104.93;48.03;;;;;;;;;;6372665;22;19994;-77
2021/03/09 04:06:54;;;;;;;85.90;37.90;;;;;;;;;;6346290;22;20089;-77
2021/03/09 04:09:21;;;;;;;82.53;40.00;;;;;;;;;;6371814;22;20033;-77
2021/03/09 04:11:48;;;;;;;92.80;43.73;;;;;;;;;;6372222;22;20492;-78
2021/03/09 04:14:15;;;;;;;85.23;40.13;;;;;;;;;;6372928;22;20014;-79
2021/03/09 04:16:43;;;;;;;97.40;42.83;;;;;;;;;;6373531;22;20070;-77
2021/03/09 04:19:09;;;;;;;97.77;39.30;;;;;;;;;;6374522;22;20007;-77
2021/03/09 04:21:35;;;;;;;95.70;40.63;;;;;;;;;;6373775;22;20090;-77
2021/03/09 04:24:02;;;;;;;94.03;42.73;;;;;;;;;;6372645;22;20004;-77
2021/03/09 04:26:29;;;;;;;86.90;37.53;;;;;;;;;;6370476;22;20105;-78
2021/03/09 04:28:56;;;;;;;89.43;33.37;;;;;;;;;;6370756;22;20006;-78
2021/03/09 04:31:22;;;;;;;78.13;31.30;;;;;;;;;;6344718;22;20439;-78
2021/03/09 04:33:48;;;;;;;67.90;21.97;;;;;;;;;;6344564;22;20006;-77
2021/03/09 04:36:15;;;;;;;42.40;13.97;;;;;;;;;;6344870;22;20450;-77
2021/03/09 04:38:41;;;;;;;35.23;10.50;;;;;;;;;;6372178;22;20002;-78
2021/03/09 04:41:07;;;;;;;34.87;9.63;;;;;;;;;;6346391;22;20007;-77
2021/03/09 04:43:34;;;;;;;31.00;8.00;;;;;;;;;;6374537;22;20089;-77
2021/03/09 04:46:01;;;;;;;30.57;7.30;;;;;;;;;;6374186;22;20055;-78
2021/03/09 04:48:27;;;;;;;26.43;5.83;;;;;;;;;;6346782;22;20402;-77
2021/03/09 04:50:59;;;;;;;26.60;5.80;;;;;;;;;;6374741;22;20043;-77
2021/03/09 04:53:25;;;;;;;18.27;4.77;;;;;;;;;;6373459;22;20010;-78
2021/03/09 04:55:51;;;;;;;26.23;5.20;;;;;;;;;;6346742;22;20100;-77
2021/03/09 04:58:17;;;;;;;29.67;4.30;;;;;;;;;;6373904;22;20009;-77
2021/03/09 05:00:43;;;;;;;18.20;3.53;;;;;;;;;;6347545;22;20431;-77
2021/03/09 05:03:09;;;;;;;13.20;5.20;;;;;;;;;;6374452;22;20014;-78
2021/03/09 05:05:35;;;;;;;18.37;3.97;;;;;;;;;;6374140;22;20014;-76
2021/03/09 05:08:01;;;;;;;16.63;3.00;;;;;;;;;;6347530;22;19998;-77
2021/03/09 05:10:27;;;;;;;21.27;2.77;;;;;;;;;;6346630;22;20063;-77
2021/03/09 05:12:53;;;;;;;28.97;3.80;;;;;;;;;;6347130;22;20489;-77
2021/03/09 05:15:19;;;;;;;11.97;1.80;;;;;;;;;;6346931;22;20014;-77
2021/03/09 05:17:46;;;;;;;12.10;1.93;;;;;;;;;;6373990;22;20316;-78
2021/03/09 05:20:13;;;;;;;15.00;2.13;;;;;;;;;;6375093;22;20010;-78
2021/03/09 05:22:39;;;;;;;13.63;2.43;;;;;;;;;;6375449;22;20012;-77
2021/03/09 05:25:13;;;;;;;13.63;1.77;;;;;;;;;;6375225;22;20487;-77
2021/03/09 05:27:42;;;;;;;22.13;3.23;;;;;;;;;;6373197;22;20021;-77
2021/03/09 05:30:09;;;;;;;15.13;2.27;;;;;;;;;;6375110;22;20006;-77
2021/03/09 05:32:35;;;;;;;24.37;2.40;;;;;;;;;;6373398;22;20093;-77
2021/03/09 05:35:02;;;;;;;21.63;2.33;;;;;;;;;;6373471;22;20361;-77
2021/03/09 05:37:27;;;;;;;21.40;1.90;;;;;;;;;;6373043;22;20011;-78
2021/03/09 05:39:54;;;;;;;12.70;3.93;;;;;;;;;;6348173;22;20038;-77
2021/03/09 05:42:20;;;;;;;12.97;1.87;;;;;;;;;;6374666;22;20006;-77
2021/03/09 05:44:47;;;;;;;14.97;1.60;;;;;;;;;;6375748;22;20003;-79
2021/03/09 05:47:13;;;;;;;13.57;1.73;;;;;;;;;;6350799;22;20404;-77
2021/03/09 05:49:39;;;;;;;9.77;1.60;;;;;;;;;;6350317;22;20010;-78
2021/03/09 05:52:05;;;;;;;10.40;1.50;;;;;;;;;;6352380;22;20026;-77
2021/03/09 05:54:31;;;;;;;14.40;1.70;;;;;;;;;;6382462;22;20010;-78
2021/03/09 05:56:57;;;;;;;7.70;1.13;;;;;;;;;;6357852;22;20075;-78
2021/03/09 05:59:24;;;;;;;6.63;1.17;;;;;;;;;;6358827;22;20014;-77
2021/03/09 06:01:50;;;;;;;10.67;1.40;;;;;;;;;;6356165;22;20018;-77
2021/03/09 06:04:17;;;;;;;6.00;0.83;;;;;;;;;;6383140;22;20050;-77
2021/03/09 06:06:43;;;;;;;7.70;1.03;;;;;;;;;;6385727;22;20001;-77
2021/03/09 06:09:28;;;;;;;7.83;0.90;;;;;;;;;;6383282;22;20073;-77
2021/03/09 06:12:06;;;;;;;5.38;1.17;;;;;;;;;;6374827;22;20065;-77
2021/03/09 06:14:32;;;;;;;12.17;1.60;;;;;;;;;;6378039;22;20062;-77
2021/03/09 06:16:59;;;;;;;5.63;1.17;;;;;;;;;;6376006;22;20010;-77
2021/03/09 06:19:40;;;;;;;14.27;1.27;;;;;;;;;;6376544;22;20006;-77
2021/03/09 06:22:06;;;;;;;12.03;1.30;;;;;;;;;;6372962;22;20006;-78
2021/03/09 06:24:32;;;;;;;14.80;1.70;;;;;;;;;;6371657;22;20097;-77
2021/03/09 06:26:58;;;;;;;8.00;1.30;;;;;;;;;;6345403;22;20396;-77
2021/03/09 06:29:24;;;;;;;9.37;1.47;;;;;;;;;;6345639;22;20042;-77
2021/03/09 06:31:49;;;;;;;11.57;2.20;;;;;;;;;;6345737;22;20031;-77
2021/03/09 06:34:22;;;;;;;11.00;1.60;;;;;;;;;;6373182;22;20009;-76
2021/03/09 06:37:02;;;;;;;10.87;1.83;;;;;;;;;;6372155;22;20014;-78
2021/03/09 06:39:47;;;;;;;15.03;1.70;;;;;;;;;;6372018;22;20062;-78
2021/03/09 06:42:13;;;;;;;18.23;2.45;;;;;;;;;;6373899;22;20006;-77
2021/03/09 06:44:39;;;;;;;15.63;2.67;;;;;;;;;;6346799;22;20011;-77
2021/03/09 06:47:06;;;;;;;15.67;3.30;;;;;;;;;;6344550;22;20441;-78
2021/03/09 06:49:47;;;;;;;21.03;3.23;;;;;;;;;;6371858;22;19994;-77
2021/03/09 06:52:14;;;;;;;14.97;3.27;;;;;;;;;;6371851;22;20037;-77
2021/03/09 06:54:47;;;;;;;14.97;3.57;;;;;;;;;;6371178;22;20062;-76
2021/03/09 06:57:13;;;;;;;15.97;3.07;;;;;;;;;;6365728;22;20023;-76
2021/03/09 06:59:42;;;;;;;12.37;3.13;;;;;;;;;;6368890;22;20014;-78
2021/03/09 07:02:09;;;;;;;11.20;3.50;;;;;;;;;;6365655;22;20026;-77
2021/03/09 07:04:45;;;;;;;20.00;3.97;;;;;;;;;;6365393;22;20424;-78
2021/03/09 07:07:15;;;;;;;22.47;3.50;;;;;;;;;;6365641;22;20006;-77
2021/03/09 07:09:53;;;;;;;19.57;4.03;;;;;;;;;;6365403;22;20406;-78
2021/03/09 07:12:19;;;;;;;14.93;3.20;;;;;;;;;;6365934;22;20011;-77
2021/03/09 07:14:46;;;;;;;18.20;2.73;;;;;;;;;;6340575;22;20023;-76
2021/03/09 07:17:13;;;;;;;16.43;2.43;;;;;;;;;;6365836;22;20002;-77
2021/03/09 07:19:44;;;;;;;10.50;2.73;;;;;;;;;;6365696;22;20014;-77
2021/03/09 07:22:10;;;;;;;13.93;2.53;;;;;;;;;;6365849;22;20003;-77
2021/03/09 07:24:39;;;;;;;16.83;2.43;;;;;;;;;;6367181;22;20014;-77
2021/03/09 07:27:11;;;;;;;16.10;2.70;;;;;;;;;;6365659;22;20003;-76
2021/03/09 07:29:37;;;;;;;15.50;2.53;;;;;;;;;;6366096;22;20009;-76
2021/03/09 07:32:05;;;;;;;16.13;2.47;;;;;;;;;;6340090;22;20077;-77
2021/03/09 07:34:31;;;;;;;20.33;2.33;;;;;;;;;;6340871;22;19995;-77
2021/03/09 07:36:58;;;;;;;13.80;2.20;;;;;;;;;;6339527;22;20504;-77
2021/03/09 07:39:25;;;;;;;25.67;2.40;;;;;;;;;;6339238;22;20014;-77
2021/03/09 07:41:51;;;;;;;17.07;2.23;;;;;;;;;;6365796;22;20438;-77
2021/03/09 07:44:17;;;;;;;20.17;1.73;;;;;;;;;;6339880;22;20452;-77
2021/03/09 07:46:44;;;;;;;16.70;1.77;;;;;;;;;;6365888;22;20014;-77
2021/03/09 07:49:10;;;;;;;14.53;1.90;;;;;;;;;;6365734;22;20313;-78
2021/03/09 07:51:56;;;;;;;16.17;1.30;;;;;;;;;;6339422;22;20324;-77
2021/03/09 07:54:22;;;;;;;12.23;1.70;;;;;;;;;;6365749;22;20003;-76
2021/03/09 07:57:07;;;;;;;20.20;2.87;;;;;;;;;;6340315;22;20022;-77
2021/03/09 07:59:33;;;;;;;14.77;1.50;;;;;;;;;;6367685;22;20014;-77
2021/03/09 08:02:00;;;;;;;13.97;1.50;;;;;;;;;;6368034;22;20008;-76
2021/03/09 08:04:26;;;;;;;9.80;1.03;;;;;;;;;;6343864;22;20007;-76
2021/03/09 08:06:52;;;;;;;8.57;1.30;;;;;;;;;;6342835;22;20032;-76
2021/03/09 08:09:34;;;;;;;10.80;1.20;;;;;;;;;;6368473;22;20417;-77
2021/03/09 08:12:01;;;;;;;11.90;0.97;;;;;;;;;;6365340;22;20428;-77
2021/03/09 08:14:27;;;;;;;5.90;0.80;;;;;;;;;;6365970;22;20428;-76
2021/03/09 08:16:53;;;;;;;18.43;2.07;;;;;;;;;;6341794;22;20011;-77
2021/03/09 08:19:25;;;;;;;6.97;1.20;;;;;;;;;;6341061;22;20015;-76
2021/03/09 08:21:51;;;;;;;9.93;1.17;;;;;;;;;;6366454;22;20089;-77
2021/03/09 08:24:18;;;;;;;13.50;1.47;;;;;;;;;;6366482;22;20329;-77
2021/03/09 08:26:45;;;;;;;14.03;1.60;;;;;;;;;;6366425;22;20007;-77
2021/03/09 08:29:32;;;;;;;9.97;1.33;;;;;;;;;;6366589;22;20002;-77
2021/03/09 08:32:17;;;;;;;9.97;1.47;;;;;;;;;;6342189;22;20118;-77
2021/03/09 08:34:43;;;;;;;13.18;2.70;;;;;;;;;;6341446;22;20321;-77
2021/03/09 08:37:29;;;;;;;9.93;0.80;;;;;;;;;;6367205;22;20014;-78
2021/03/09 08:40:09;;;;;;;7.33;0.70;;;;;;;;;;6367578;22;20082;-76
2021/03/09 08:43:10;;;;;;;3.90;0.60;;;;;;;;;;6342197;22;19999;-76
2021/03/09 08:45:36;;;;;;;7.67;0.70;;;;;;;;;;6220978;23;20090;-77
2021/03/09 08:48:03;;;;;;;5.33;0.80;;;;;;;;;;6314635;22;20041;-76
2021/03/09 08:50:37;;;;;;;3.20;0.60;;;;;;;;;;6341375;22;20014;-76
2021/03/09 08:53:03;;;;;;;5.13;0.60;;;;;;;;;;6366136;22;20007;-77
2021/03/09 08:55:29;;;;;;;5.83;0.60;;;;;;;;;;6341905;22;20052;-76
2021/03/09 08:57:55;;;;;;;6.40;0.70;;;;;;;;;;6340189;22;20023;-76
2021/03/09 09:00:22;;;;;;;9.73;0.83;;;;;;;;;;6341193;22;20034;-76
2021/03/09 09:02:49;;;;;;;8.57;1.00;;;;;;;;;;6342606;22;20006;-77
2021/03/09 09:05:15;;;;;;;3.43;0.73;;;;;;;;;;6345751;22;20033;-76
2021/03/09 09:07:42;;;;;;;8.43;0.80;;;;;;;;;;6366401;22;20007;-77
2021/03/09 09:10:25;;;;;;;9.47;1.30;;;;;;;;;;6366212;22;20073;-76
2021/03/09 09:12:51;;;;;;;7.60;0.83;;;;;;;;;;6366515;22;20483;-76
2021/03/09 09:15:28;;;;;;;5.40;0.60;;;;;;;;;;6366286;22;20019;-76
2021/03/09 09:17:58;;;;;;;4.57;0.47;;;;;;;;;;6369677;22;20065;-78
2021/03/09 09:20:33;;;;;;;8.70;0.80;;;;;;;;;;6348433;22;20015;-78
2021/03/09 09:23:21;;;;;;;8.27;0.80;;;;;;;;;;6371590;22;20373;-77
2021/03/09 09:25:48;;;;;;;5.67;0.53;;;;;;;;;;6353354;22;20001;-79
2021/03/09 09:28:24;;;;;;;5.90;0.80;;;;;;;;;;6348739;22;20005;-77
2021/03/09 09:30:50;;;;;;;4.43;0.63;;;;;;;;;;6346700;22;20460;-77
2021/03/09 09:33:16;;;;;;;5.00;1.17;;;;;;;;;;6342397;22;20432;-77
2021/03/09 09:35:43;;;;;;;5.60;0.63;;;;;;;;;;6368304;22;20006;-75
2021/03/09 09:38:10;;;;;;;4.63;0.73;;;;;;;;;;6368613;22;20065;-76
2021/03/09 09:40:40;;;;;;;3.00;0.43;;;;;;;;;;6369615;22;20412;-74
2021/03/09 09:43:07;;;;;;;6.00;0.60;;;;;;;;;;6368969;22;20078;-75
2021/03/09 09:45:40;;;;;;;7.47;0.50;;;;;;;;;;6370199;22;20006;-76
2021/03/09 09:48:06;;;;;;;5.77;0.70;;;;;;;;;;6346128;22;20006;-75
2021/03/09 09:50:32;;;;;;;5.57;0.70;;;;;;;;;;6350785;22;20010;-76
2021/03/09 09:52:59;;;;;;;3.50;0.30;;;;;;;;;;6354329;22;20010;-76
2021/03/09 09:55:27;;;;;;;2.70;0.50;;;;;;;;;;6380202;22;20014;-76
2021/03/09 09:57:54;;;;;;;7.13;0.80;;;;;;;;;;6379771;22;20010;-75
2021/03/09 10:00:21;;;;;;;4.10;0.40;;;;;;;;;;6349378;22;20029;-76
2021/03/09 10:03:05;;;;;;;2.73;0.33;;;;;;;;;;6375699;22;19998;-75
2021/03/09 10:05:31;;;;;;;1.37;0.40;;;;;;;;;;6374350;22;20006;-75
2021/03/09 10:07:57;;;;;;;1.27;0.40;;;;;;;;;;6352338;22;20017;-79
2021/03/09 10:10:23;;;;;;;4.27;0.40;;;;;;;;;;6350243;22;20029;-77
2021/03/09 10:12:50;;;;;;;2.63;0.23;;;;;;;;;;6350265;22;20431;-75
2021/03/09 10:15:16;;;;;;;5.33;0.40;;;;;;;;;;6373435;22;20014;-76
2021/03/09 10:17:42;;;;;;;5.30;0.70;;;;;;;;;;6347402;22;20009;-76
2021/03/09 10:20:19;;;;;;;0.87;0.20;;;;;;;;;;6372907;22;20282;-75
2021/03/09 10:22:45;;;;;;;1.70;0.27;;;;;;;;;;6376449;22;20003;-76
2021/03/09 10:25:13;;;;;;;5.37;0.40;;;;;;;;;;6371556;22;20040;-75
2021/03/09 10:27:39;;;;;;;5.80;0.40;;;;;;;;;;6373111;22;19994;-76
2021/03/09 10:30:05;;;;;;;3.53;0.30;;;;;;;;;;6370735;22;20042;-76
2021/03/09 10:32:31;;;;;;;3.37;0.40;;;;;;;;;;6372038;22;20073;-75
2021/03/09 10:35:06;;;;;;;1.80;0.30;;;;;;;;;;6370211;22;20007;-75
2021/03/09 10:37:35;;;;;;;2.38;0.55;;;;;;;;;;6370497;22;20002;-76
2021/03/09 10:40:03;;;;;;;0.53;0.20;;;;;;;;;;6344423;22;20013;-76
2021/03/09 10:42:37;;;;;;;2.50;0.40;;;;;;;;;;6372343;22;20007;-76
2021/03/09 10:45:22;;;;;;;2.20;0.30;;;;;;;;;;6373474;22;20399;-76
2021/03/09 10:47:54;;;;;;;4.95;1.20;;;;;;;;;;6371497;22;20439;-75
2021/03/09 10:50:24;;;;;;;4.10;0.30;;;;;;;;;;6373359;22;20002;-76
2021/03/09 10:52:50;;;;;;;6.13;0.50;;;;;;;;;;6371787;22;20011;-76
2021/03/09 10:55:17;;;;;;;4.13;0.30;;;;;;;;;;6346946;22;20006;-76
2021/03/09 10:57:43;;;;;;;2.37;0.50;;;;;;;;;;6372720;22;20459;-76
2021/03/09 11:00:13;;;;;;;2.57;0.40;;;;;;;;;;6375133;22;20014;-77
2021/03/09 11:02:39;;;;;;;2.00;0.37;;;;;;;;;;6376809;22;20010;-75
2021/03/09 11:05:05;;;;;;;3.93;0.40;;;;;;;;;;6379796;22;20003;-76
2021/03/09 11:07:32;;;;;;;1.37;0.33;;;;;;;;;;6376676;22;19994;-75
2021/03/09 11:09:58;;;;;;;2.03;0.47;;;;;;;;;;6347000;22;20010;-76
2021/03/09 11:12:24;;;;;;;4.50;0.80;;;;;;;;;;6372383;22;20098;-75
2021/03/09 11:14:50;;;;;;;1.83;0.70;;;;;;;;;;6346350;22;20007;-75
2021/03/09 11:17:16;;;;;;;1.40;0.40;;;;;;;;;;6374213;22;19994;-75
2021/03/09 11:19:42;;;;;;;1.23;0.30;;;;;;;;;;6374263;22;20048;-75
2021/03/09 11:22:08;;;;;;;2.07;0.50;;;;;;;;;;6373773;22;20006;-76
2021/03/09 11:24:34;;;;;;;1.13;0.30;;;;;;;;;;6350480;22;20012;-76
2021/03/09 11:27:01;;;;;;;0.70;0.20;;;;;;;;;;6378278;22;20063;-76
2021/03/09 11:29:31;;;;;;;0.97;0.47;;;;;;;;;;6349716;22;20011;-76
2021/03/09 11:31:57;;;;;;;0.70;0.20;;;;;;;;;;6353037;22;20014;-77
2021/03/09 11:34:24;;;;;;;5.50;0.47;;;;;;;;;;6356092;22;20089;-76
2021/03/09 11:36:50;;;;;;;2.40;0.40;;;;;;;;;;6381784;22;20006;-76
2021/03/09 11:39:17;;;;;;;1.87;0.40;;;;;;;;;;6380956;22;20370;-75
2021/03/09 11:41:43;;;;;;;0.77;0.40;;;;;;;;;;6380493;22;20031;-76
2021/03/09 11:44:09;;;;;;;2.77;0.40;;;;;;;;;;6379347;22;20011;-77
2021/03/09 11:46:35;;;;;;;1.13;0.20;;;;;;;;;;6354341;22;19998;-76
2021/03/09 11:49:01;;;;;;;2.80;0.40;;;;;;;;;;6352171;22;20026;-77
2021/03/09 11:51:27;;;;;;;5.50;1.17;;;;;;;;;;6378812;22;20017;-76
2021/03/09 11:53:54;;;;;;;3.23;0.60;;;;;;;;;;6378722;22;20011;-76
2021/03/09 11:56:20;;;;;;;0.87;0.30;;;;;;;;;;6377310;22;20024;-76
2021/03/09 11:58:47;;;;;;;0.47;0.30;;;;;;;;;;6372611;22;20010;-75
2021/03/09 12:01:13;;;;;;;1.37;0.60;;;;;;;;;;6346070;22;20093;-75
2021/03/09 12:03:39;;;;;;;3.83;0.50;;;;;;;;;;6372287;22;20136;-76
2021/03/09 12:06:05;;;;;;;4.20;0.60;;;;;;;;;;6346283;22;20014;-76
2021/03/09 12:08:31;;;;;;;4.50;0.60;;;;;;;;;;6372296;22;20017;-76
2021/03/09 12:10:57;;;;;;;3.00;0.50;;;;;;;;;;6373781;22;20042;-76
2021/03/09 12:13:23;;;;;;;3.03;0.73;;;;;;;;;;6373745;22;20047;-76
2021/03/09 12:15:49;;;;;;;4.13;1.00;;;;;;;;;;6351520;22;20029;-76
2021/03/09 12:18:15;;;;;;;1.73;0.50;;;;;;;;;;6378285;22;20011;-76
2021/03/09 12:20:42;;;;;;;3.30;0.70;;;;;;;;;;6352550;22;20038;-77
2021/03/09 12:23:08;;;;;;;2.97;0.50;;;;;;;;;;6353139;22;20018;-77
2021/03/09 12:25:34;;;;;;;3.00;0.60;;;;;;;;;;6348673;22;20340;-76
2021/03/09 12:28:00;;;;;;;2.20;0.67;;;;;;;;;;6347559;22;20010;-76
2021/03/09 12:30:27;;;;;;;2.67;0.30;;;;;;;;;;6374600;22;20007;-75
2021/03/09 12:32:53;;;;;;;3.57;0.47;;;;;;;;;;6375363;22;20013;-77
2021/03/09 12:35:19;;;;;;;5.00;0.50;;;;;;;;;;6374194;22;20002;-76
2021/03/09 12:37:45;;;;;;;2.87;0.33;;;;;;;;;;6371056;22;20360;-75
2021/03/09 12:40:12;;;;;;;4.43;0.60;;;;;;;;;;6369707;22;20025;-75
2021/03/09 12:42:38;;;;;;;2.57;0.50;;;;;;;;;;6344425;22;20010;-77
2021/03/09 12:45:05;;;;;;;3.93;0.50;;;;;;;;;;6369879;22;20085;-76
2021/03/09 12:47:31;;;;;;;3.03;0.40;;;;;;;;;;6369970;22;20051;-77
2021/03/09 12:49:58;;;;;;;5.60;0.70;;;;;;;;;;6343964;22;20014;-76
2021/03/09 12:52:24;;;;;;;2.33;0.60;;;;;;;;;;6371511;22;19998;-76
2021/03/09 12:54:50;;;;;;;6.93;1.20;;;;;;;;;;6343955;22;20011;-76
2021/03/09 12:57:16;;;;;;;8.33;1.90;;;;;;;;;;6343601;22;20097;-76
2021/03/09 12:59:42;;;;;;;7.83;2.17;;;;;;;;;;6344171;22;20071;-76
2021/03/09 13:02:08;;;;;;;3.90;1.20;;;;;;;;;;6372919;22;20025;-76
2021/03/09 13:04:34;;;;;;;1.97;0.93;;;;;;;;;;6346976;22;20008;-77
2021/03/09 13:07:00;;;;;;;9.07;3.00;;;;;;;;;;6347525;22;20438;-77
2021/03/09 13:09:26;;;;;;;9.75;2.83;;;;;;;;;;6373014;22;20017;-76
2021/03/09 13:11:52;;;;;;;9.53;3.30;;;;;;;;;;6374598;22;20011;-77
2021/03/09 13:14:19;;;;;;;9.27;3.13;;;;;;;;;;6348671;22;20075;-77
2021/03/09 13:16:45;;;;;;;12.97;5.30;;;;;;;;;;6351156;22;20014;-77
2021/03/09 13:19:11;;;;;;;8.13;3.73;;;;;;;;;;6351473;22;20144;-77
2021/03/09 13:21:37;;;;;;;6.30;2.63;;;;;;;;;;6372527;22;20021;-77
2021/03/09 13:24:04;;;;;;;10.53;2.73;;;;;;;;;;6372623;22;20010;-77
2021/03/09 13:26:30;;;;;;;11.30;3.03;;;;;;;;;;6373292;22;20335;-77
2021/03/09 13:28:56;;;;;;;7.53;1.90;;;;;;;;;;6346399;22;20014;-77
2021/03/09 13:31:22;;;;;;;6.43;1.60;;;;;;;;;;6345761;22;20325;-77
2021/03/09 13:33:48;;;;;;;5.47;3.37;;;;;;;;;;6346668;22;20010;-78
2021/03/09 13:36:14;;;;;;;6.97;2.73;;;;;;;;;;6375087;22;20022;-76
2021/03/09 13:38:40;;;;;;;4.50;2.53;;;;;;;;;;6346862;22;20063;-77
2021/03/09 13:41:06;;;;;;;8.88;1.88;;;;;;;;;;6375635;22;20003;-78
2021/03/09 13:43:33;;;;;;;9.07;2.27;;;;;;;;;;6351395;22;20073;-77
2021/03/09 13:45:59;;;;;;;8.77;2.03;;;;;;;;;;6372535;22;20150;-78
2021/03/09 13:48:25;;;;;;;8.23;2.40;;;;;;;;;;6347126;22;20018;-79
2021/03/09 13:50:57;;;;;;;6.53;2.03;;;;;;;;;;6368761;22;20002;-84
2021/03/09 13:53:23;;;;;;;6.43;2.40;;;;;;;;;;6373323;22;20014;-84
2021/03/09 13:55:52;;;;;;;9.80;3.10;;;;;;;;;;6371892;22;20010;-84
2021/03/09 13:58:18;;;;;;;6.07;2.27;;;;;;;;;;6387649;22;20010;-82
2021/03/09 14:00:56;;;;;;;9.77;2.53;;;;;;;;;;6392738;22;19994;-85
2021/03/09 14:04:00;;;;;;;9.40;2.20;;;;;;;;;;6383429;22;20033;-80
2021/03/09 14:06:27;;;;;;;9.93;2.80;;;;;;;;;;6386159;22;20007;-81
2021/03/09 14:08:53;;;;;;;6.67;2.17;;;;;;;;;;6383258;22;20010;-80
2021/03/09 14:11:19;;;;;;;8.80;2.53;;;;;;;;;;6378984;22;20491;-79
2021/03/09 14:13:45;;;;;;;4.53;2.33;;;;;;;;;;6378694;22;20026;-80
2021/03/09 14:16:11;;;;;;;3.37;1.60;;;;;;;;;;6352954;22;20038;-80
2021/03/09 14:18:37;;;;;;;6.47;2.10;;;;;;;;;;6381641;22;20420;-80
2021/03/09 14:21:04;;;;;;;6.67;3.70;;;;;;;;;;6381972;22;20014;-81
2021/03/09 14:23:30;;;;;;;6.10;3.67;;;;;;;;;;6383110;22;20025;-80
2021/03/09 14:25:56;;;;;;;5.97;4.00;;;;;;;;;;6383799;22;20003;-79
2021/03/09 14:31:29;;;;;;;9.80;6.00;;;;;;;;;;6355769;22;20017;-81
2021/03/09 14:33:55;;;;;;;6.37;4.17;;;;;;;;;;6383813;22;20022;-81
2021/03/09 14:36:22;;;;;;;10.18;5.88;;;;;;;;;;6358675;22;20403;-81
2021/03/09 14:38:51;;;;;;;10.48;5.78;;;;;;;;;;6356688;22;20011;-81